Time;durP1;ratioP1;P1;durP2;ratioP2;P2;SDS_P1;SDS_P2;PMS_P1;PMS_P2;Temp;Humidity;BMP_temperature;BMP_pressure;BME280_temperature;BME280_humidity;BME280_pressure;Samples;Min_cycle;Max_cycle;Signal;HPM_P1;HPM_P2
2022/01/10 00:00:00;;;;;;;14.25;3.10;;;4.30;99.90;;;;;;5117056;27;20086;-79
2022/01/10 00:02:26;;;;;;;8.85;3.05;;;4.50;99.90;;;;;;5136478;27;20119;-80
2022/01/10 00:04:52;;;;;;;14.27;3.47;;;4.40;99.90;;;;;;5135566;27;20130;-80
2022/01/10 00:07:18;;;;;;;12.40;3.50;;;4.40;99.90;;;;;;5114371;28;20444;-79
2022/01/10 00:09:43;;;;;;;10.48;3.17;;;4.60;99.90;;;;;;5114194;28;20055;-80
2022/01/10 00:12:09;;;;;;;10.23;3.05;;;4.80;99.90;;;;;;5113911;28;20048;-80
2022/01/10 00:14:36;;;;;;;13.77;3.72;;;4.50;99.90;;;;;;5114763;28;20395;-80
2022/01/10 00:17:03;;;;;;;10.10;2.70;;;4.50;99.90;;;;;;5115709;28;20043;-80
2022/01/10 00:19:29;;;;;;;10.68;3.13;;;4.20;99.90;;;;;;5114800;28;20055;-80
2022/01/10 00:21:55;;;;;;;9.45;2.85;;;4.10;99.90;;;;;;5113988;28;20047;-80
2022/01/10 00:24:21;;;;;;;12.38;3.25;;;4.30;99.90;;;;;;5115551;28;20104;-80
2022/01/10 00:26:47;;;;;;;9.57;2.40;;;4.30;99.90;;;;;;5113583;28;20143;-80
2022/01/10 00:29:13;;;;;;;12.45;2.90;;;4.10;99.90;;;;;;5114572;28;20472;-80
2022/01/10 00:31:39;;;;;;;10.38;2.90;;;4.50;99.90;;;;;;5114323;28;20052;-80
2022/01/10 00:34:05;;;;;;;12.95;2.63;;;5.10;99.90;;;;;;5113534;28;20075;-80
2022/01/10 00:36:30;;;;;;;7.78;2.15;;;4.60;99.90;;;;;;5114502;28;20047;-80
2022/01/10 00:38:56;;;;;;;18.40;3.08;;;4.40;99.90;;;;;;5096306;28;20046;-81
2022/01/10 00:41:22;;;;;;;9.43;2.63;;;4.60;99.90;;;;;;5114447;28;20130;-81
2022/01/10 00:43:50;;;;;;;12.43;2.67;;;4.20;99.90;;;;;;5096584;28;20471;-81
2022/01/10 00:46:16;;;;;;;10.55;2.90;;;4.20;99.90;;;;;;5114497;28;20044;-80
2022/01/10 00:48:41;;;;;;;11.55;2.47;;;4.10;99.90;;;;;;5114967;28;20127;-80
2022/01/10 00:51:08;;;;;;;9.48;2.40;;;5.20;99.90;;;;;;5096403;28;20497;-80
2022/01/10 00:53:33;;;;;;;9.82;2.90;;;4.40;99.90;;;;;;5113399;28;20039;-81
2022/01/10 00:55:59;;;;;;;9.48;2.42;;;4.10;99.90;;;;;;5096330;28;20044;-81
2022/01/10 00:58:25;;;;;;;11.43;2.63;;;4.10;99.90;;;;;;5113310;28;20043;-80
2022/01/10 01:00:51;;;;;;;10.27;2.40;;;4.60;99.90;;;;;;5079093;28;20043;-80
2022/01/10 01:03:17;;;;;;;7.15;2.42;;;5.50;99.90;;;;;;5114806;28;20044;-80
2022/01/10 01:05:44;;;;;;;11.07;2.53;;;4.80;99.90;;;;;;5114968;28;20047;-81
2022/01/10 01:08:12;;;;;;;8.80;2.25;;;4.40;99.90;;;;;;5113137;28;20067;-81
2022/01/10 01:13:32;;;;;;;11.00;2.22;;;4.00;99.90;;;;;;5114215;28;20108;-80
2022/01/10 01:24:01;;;;;;;7.43;2.22;;;3.70;99.90;;;;;;5121749;28;20051;-80
2022/01/10 01:26:36;;;;;;;9.40;2.60;;;4.50;99.90;;;;;;5121642;28;20055;-80
2022/01/10 01:29:07;;;;;;;13.75;3.20;;;4.50;99.90;;;;;;5126229;28;20044;-79
2022/01/10 01:31:34;;;;;;;11.93;2.58;;;4.10;99.90;;;;;;5103832;28;20051;-80
2022/01/10 01:34:00;;;;;;;7.03;2.10;;;4.20;99.90;;;;;;5097415;28;20051;-80
2022/01/10 01:36:29;;;;;;;10.45;2.03;;;4.00;99.90;;;;;;5114644;28;20036;-80
2022/01/10 01:38:55;;;;;;;8.98;1.92;;;3.50;99.90;;;;;;5100182;28;20046;-80
2022/01/10 01:43:58;;;;;;;9.75;3.03;;;3.80;99.90;;;;;;5118099;28;20047;-80
2022/01/10 01:46:25;;;;;;;7.97;2.70;;;3.80;99.90;;;;;;5117317;28;20047;-80
2022/01/10 01:48:52;;;;;;;8.95;2.38;;;4.20;99.90;;;;;;5118299;28;20079;-80
2022/01/10 01:51:19;;;;;;;8.43;2.15;;;3.50;99.90;;;;;;5117223;28;20047;-80
2022/01/10 01:53:46;;;;;;;8.55;2.65;;;3.30;99.90;;;;;;5116826;28;20454;-80
2022/01/10 01:56:13;;;;;;;10.35;2.22;;;3.80;99.90;;;;;;5099483;28;20069;-81
2022/01/10 01:58:41;;;;;;;6.28;1.80;;;3.50;99.90;;;;;;5116396;28;20100;-80
2022/01/10 02:01:07;;;;;;;8.52;2.55;;;3.40;99.90;;;;;;5117362;28;20055;-80
2022/01/10 02:03:37;;;;;;;9.80;2.38;;;3.60;99.90;;;;;;5082620;28;20044;-79
2022/01/10 02:06:03;;;;;;;12.68;2.47;;;3.20;99.90;;;;;;5116317;28;20484;-80
2022/01/10 02:08:29;;;;;;;7.30;2.00;;;3.40;99.90;;;;;;5099244;28;20059;-80
2022/01/10 02:10:54;;;;;;;9.07;2.88;;;3.10;99.90;;;;;;5117802;28;20536;-80
2022/01/10 02:13:20;;;;;;;7.88;2.28;;;3.50;99.90;;;;;;5116265;28;20106;-80
2022/01/10 02:15:56;;;;;;;6.93;2.20;;;3.30;99.90;;;;;;5099901;28;20119;-81
2022/01/10 02:18:23;;;;;;;8.02;2.38;;;3.30;99.90;;;;;;5117158;28;20086;-80
2022/01/10 02:20:49;;;;;;;9.75;2.90;;;3.10;99.90;;;;;;5117631;28;20107;-80
2022/01/10 02:23:16;;;;;;;10.65;3.05;;;3.40;99.90;;;;;;5116233;28;20040;-80
2022/01/10 02:25:43;;;;;;;12.23;2.67;;;3.20;99.90;;;;;;5116060;28;20122;-80
2022/01/10 02:28:09;;;;;;;9.73;3.00;;;2.90;99.90;;;;;;5116013;28;20105;-80
2022/01/10 02:30:35;;;;;;;10.27;2.45;;;3.10;99.90;;;;;;5117270;28;20035;-80
2022/01/10 02:33:01;;;;;;;10.65;2.67;;;3.70;99.90;;;;;;5116724;28;20368;-80
2022/01/10 02:35:37;;;;;;;12.73;3.35;;;3.60;99.90;;;;;;5116835;28;20043;-80
2022/01/10 02:38:03;;;;;;;11.43;2.90;;;2.80;99.90;;;;;;5115588;28;20039;-80
2022/01/10 02:40:31;;;;;;;8.32;2.92;;;3.00;99.90;;;;;;5115652;28;20097;-80
2022/01/10 02:42:57;;;;;;;7.43;2.25;;;2.90;99.90;;;;;;5082521;28;20051;-81
2022/01/10 02:45:24;;;;;;;9.15;2.70;;;3.40;99.90;;;;;;5116571;28;20092;-80
2022/01/10 02:47:50;;;;;;;8.70;2.50;;;2.70;99.90;;;;;;5114904;28;20047;-69
2022/01/10 02:50:18;;;;;;;7.50;2.78;;;3.10;99.90;;;;;;5097778;28;20143;-69
2022/01/10 02:52:44;;;;;;;9.60;2.83;;;3.60;99.90;;;;;;5081825;28;20135;-69
2022/01/10 02:55:11;;;;;;;10.05;2.97;;;2.70;99.90;;;;;;5098136;28;20047;-69
2022/01/10 02:57:38;;;;;;;11.07;3.22;;;2.90;99.90;;;;;;5098277;28;20075;-69
2022/01/10 03:00:14;;;;;;;9.35;2.33;;;3.30;99.90;;;;;;5115424;28;20051;-68
2022/01/10 03:02:41;;;;;;;7.70;2.97;;;2.70;99.90;;;;;;5116675;28;20479;-68
2022/01/10 03:05:07;;;;;;;8.80;2.60;;;2.70;99.90;;;;;;5115578;28;20059;-68
2022/01/10 03:07:34;;;;;;;11.07;3.03;;;2.80;99.90;;;;;;5114745;28;20051;-68
2022/01/10 03:10:01;;;;;;;9.18;2.92;;;2.80;99.90;;;;;;5116099;28;20056;-69
2022/01/10 03:12:30;;;;;;;6.63;2.50;;;3.10;99.90;;;;;;5098152;28;20059;-69
2022/01/10 03:14:58;;;;;;;12.55;3.47;;;2.70;99.90;;;;;;5115402;28;20043;-69
2022/01/10 03:17:24;;;;;;;6.75;2.42;;;2.90;99.90;;;;;;5114710;28;20483;-68
2022/01/10 03:19:49;;;;;;;10.95;2.67;;;2.60;99.90;;;;;;5115939;28;20047;-69
2022/01/10 03:22:15;;;;;;;7.63;2.60;;;2.80;99.90;;;;;;5097821;28;20044;-68
2022/01/10 03:24:41;;;;;;;8.10;2.75;;;2.60;99.90;;;;;;5115410;28;20058;-68
2022/01/10 03:27:07;;;;;;;12.32;2.88;;;2.40;99.90;;;;;;5097502;28;20047;-68
2022/01/10 03:29:33;;;;;;;6.93;2.50;;;3.20;99.90;;;;;;5115502;28;20047;-68
2022/01/10 03:32:01;;;;;;;6.25;2.38;;;2.60;99.90;;;;;;5115311;28;20043;-68
2022/01/10 03:34:27;;;;;;;8.57;2.80;;;2.90;99.90;;;;;;5114408;28;20136;-68
2022/01/10 03:36:52;;;;;;;10.05;2.30;;;2.60;99.90;;;;;;5098288;28;20122;-68
2022/01/10 03:39:18;;;;;;;9.13;2.30;;;2.80;99.90;;;;;;5115509;28;20051;-68
2022/01/10 03:41:44;;;;;;;7.95;2.20;;;2.90;99.90;;;;;;5114479;28;20117;-68
2022/01/10 03:44:09;;;;;;;9.40;2.97;;;2.50;99.90;;;;;;5115526;27;20048;-69
2022/01/10 03:46:35;;;;;;;12.40;3.38;;;3.60;99.90;;;;;;5114166;28;20047;-68
2022/01/10 03:49:01;;;;;;;9.43;2.92;;;2.70;99.90;;;;;;5080386;28;20518;-69
2022/01/10 03:51:27;;;;;;;12.07;3.20;;;2.80;99.90;;;;;;5115850;28;20124;-69
2022/01/10 03:53:53;;;;;;;9.90;3.03;;;2.80;99.90;;;;;;5114512;28;20126;-69
2022/01/10 03:56:22;;;;;;;8.95;3.10;;;2.50;99.90;;;;;;5096867;28;20479;-68
2022/01/10 03:58:48;;;;;;;12.23;3.30;;;3.20;99.90;;;;;;5096838;28;20085;-68
2022/01/10 04:01:14;;;;;;;6.65;2.97;;;3.50;99.90;;;;;;5113649;28;20100;-68
2022/01/10 04:03:40;;;;;;;10.27;3.40;;;2.90;99.90;;;;;;5114008;28;20040;-68
2022/01/10 04:06:06;;;;;;;9.68;3.10;;;2.50;99.90;;;;;;5114993;28;20077;-68
2022/01/10 04:08:32;;;;;;;7.85;3.28;;;2.40;99.90;;;;;;5096526;28;20120;-68
2022/01/10 04:10:59;;;;;;;13.25;3.95;;;2.50;99.90;;;;;;5113489;28;20531;-68
2022/01/10 04:13:25;;;;;;;12.35;3.92;;;2.30;99.90;;;;;;5113510;28;20047;-69
2022/01/10 04:15:52;;;;;;;10.93;3.55;;;3.30;99.90;;;;;;5113845;28;20488;-68
2022/01/10 04:18:18;;;;;;;10.48;4.38;;;2.90;99.90;;;;;;5096769;28;20131;-69
2022/01/10 04:20:44;;;;;;;12.10;3.95;;;2.30;99.90;;;;;;5096794;28;20144;-68
2022/01/10 04:23:11;;;;;;;10.40;3.53;;;2.50;99.90;;;;;;5114692;28;20172;-68
2022/01/10 04:25:36;;;;;;;11.32;4.88;;;2.30;99.90;;;;;;5114671;28;20055;-68
2022/01/10 04:28:03;;;;;;;15.05;5.60;;;2.20;99.90;;;;;;5115354;28;20036;-68
2022/01/10 04:30:29;;;;;;;7.00;4.30;;;2.40;99.90;;;;;;5114570;28;20371;-68
2022/01/10 04:32:57;;;;;;;10.68;4.22;;;2.60;99.90;;;;;;5113527;28;20044;-69
2022/01/10 04:35:23;;;;;;;12.88;4.95;;;2.60;99.90;;;;;;5114524;28;20086;-68
2022/01/10 04:37:49;;;;;;;11.82;5.05;;;2.50;99.90;;;;;;5114333;28;20039;-68
2022/01/10 04:40:15;;;;;;;11.70;4.28;;;3.00;99.90;;;;;;5114056;28;20100;-68
2022/01/10 04:42:41;;;;;;;9.95;4.97;;;2.80;99.90;;;;;;5113403;28;20130;-68
2022/01/10 04:45:07;;;;;;;12.13;4.57;;;2.30;99.90;;;;;;5113262;28;20131;-69
2022/01/10 04:47:33;;;;;;;12.73;5.05;;;2.30;99.90;;;;;;5096342;28;20047;-69
2022/01/10 04:52:28;;;;;;;12.55;4.93;;;2.50;99.90;;;;;;5114520;28;20051;-69
2022/01/10 04:54:54;;;;;;;15.00;5.57;;;3.50;99.90;;;;;;5096459;28;20476;-68
2022/01/10 04:57:20;;;;;;;11.65;5.07;;;2.70;99.90;;;;;;5096294;28;20092;-68
2022/01/10 04:59:46;;;;;;;10.68;5.00;;;3.00;99.90;;;;;;5096257;28;20054;-69
2022/01/10 05:02:12;;;;;;;10.13;5.05;;;2.20;99.90;;;;;;5114168;28;20126;-69
2022/01/10 05:04:37;;;;;;;11.77;5.00;;;2.50;99.90;;;;;;5113394;28;20044;-68
2022/01/10 05:07:03;;;;;;;13.50;5.50;;;2.40;99.90;;;;;;5112835;28;20538;-69
2022/01/10 05:09:29;;;;;;;17.15;5.50;;;2.20;99.90;;;;;;5096744;28;20051;-68
2022/01/10 05:11:55;;;;;;;11.88;5.13;;;2.40;99.90;;;;;;5112372;28;20043;-68
2022/01/10 05:14:21;;;;;;;11.27;5.45;;;2.10;99.90;;;;;;5113775;28;20043;-69
2022/01/10 05:16:47;;;;;;;12.25;4.82;;;2.40;99.90;;;;;;5112680;28;20561;-69
2022/01/10 05:19:13;;;;;;;10.00;5.28;;;2.20;99.90;;;;;;5113034;28;20044;-68
2022/01/10 05:21:39;;;;;;;10.00;5.40;;;2.10;99.90;;;;;;5112824;28;20053;-68
2022/01/10 05:24:06;;;;;;;16.65;7.65;;;2.10;99.90;;;;;;5113778;28;20046;-68
2022/01/10 05:26:31;;;;;;;17.23;9.02;;;2.10;99.90;;;;;;5113912;28;20101;-68
2022/01/10 05:28:59;;;;;;;18.83;7.15;;;2.30;99.90;;;;;;5112617;28;20051;-68
2022/01/10 05:31:25;;;;;;;13.73;6.07;;;2.20;99.90;;;;;;5096210;28;20048;-68
2022/01/10 05:33:51;;;;;;;13.40;6.15;;;2.10;99.90;;;;;;5114647;28;20058;-69
2022/01/10 05:36:17;;;;;;;13.10;5.70;;;2.00;99.90;;;;;;5113540;28;20444;-69
2022/01/10 05:38:43;;;;;;;13.00;5.72;;;1.80;99.90;;;;;;5114397;28;20091;-68
2022/01/10 05:41:08;;;;;;;10.65;6.00;;;2.10;99.90;;;;;;5112644;28;20040;-68
2022/01/10 05:43:34;;;;;;;12.65;6.22;;;2.90;99.90;;;;;;5113361;28;20100;-69
2022/01/10 05:46:00;;;;;;;14.75;5.63;;;2.20;99.90;;;;;;5113652;28;20039;-69
2022/01/10 05:48:28;;;;;;;15.18;6.22;;;2.80;99.90;;;;;;5095484;28;20116;-69
2022/01/10 05:50:54;;;;;;;14.50;6.88;;;2.80;99.90;;;;;;5112433;28;20048;-69
2022/01/10 05:53:20;;;;;;;13.25;6.43;;;2.30;99.90;;;;;;5113008;28;20047;-69
2022/01/10 05:55:47;;;;;;;14.05;6.40;;;1.90;99.90;;;;;;5112378;28;20035;-69
2022/01/10 05:58:13;;;;;;;15.68;6.93;;;1.80;99.90;;;;;;5113397;28;20048;-69
2022/01/10 06:00:39;;;;;;;15.32;6.95;;;2.50;99.90;;;;;;5095215;28;20043;-69
2022/01/10 06:03:05;;;;;;;12.63;6.28;;;2.30;99.90;;;;;;5112262;28;20079;-68
2022/01/10 06:05:31;;;;;;;14.73;6.70;;;2.50;99.90;;;;;;5095225;28;20048;-69
2022/01/10 06:07:59;;;;;;;12.27;5.78;;;2.60;99.90;;;;;;5112258;28;20407;-69
2022/01/10 06:10:25;;;;;;;13.45;6.65;;;1.90;99.90;;;;;;5112487;28;20449;-69
2022/01/10 06:12:51;;;;;;;11.43;5.75;;;1.90;99.90;;;;;;5112488;28;20044;-69
2022/01/10 06:15:16;;;;;;;12.73;6.32;;;2.60;99.90;;;;;;5095307;28;20043;-69
2022/01/10 06:17:42;;;;;;;15.60;6.28;;;2.10;99.90;;;;;;5095526;28;20083;-69
2022/01/10 06:20:08;;;;;;;11.68;6.00;;;3.20;99.90;;;;;;5113916;28;20050;-69
2022/01/10 06:22:34;;;;;;;11.75;6.10;;;1.80;99.90;;;;;;5113083;28;20040;-68
2022/01/10 06:25:00;;;;;;;12.93;6.50;;;1.80;99.90;;;;;;5097866;28;20047;-69
2022/01/10 06:27:26;;;;;;;19.92;7.85;;;2.10;99.90;;;;;;5116963;28;20071;-68
2022/01/10 06:29:52;;;;;;;14.80;7.63;;;2.40;99.90;;;;;;5098943;28;20082;-68
2022/01/10 06:32:18;;;;;;;17.33;7.00;;;3.00;99.90;;;;;;5115796;28;20051;-69
2022/01/10 06:34:43;;;;;;;15.02;6.43;;;2.70;99.90;;;;;;5115610;28;20139;-68
2022/01/10 06:37:09;;;;;;;15.23;7.10;;;1.90;99.90;;;;;;5115590;28;20109;-68
2022/01/10 06:39:35;;;;;;;14.07;6.25;;;1.60;99.90;;;;;;5116665;28;20050;-69
2022/01/10 06:42:01;;;;;;;14.25;6.45;;;1.70;99.90;;;;;;5115505;28;20054;-68
2022/01/10 06:44:26;;;;;;;13.27;6.72;;;2.00;99.90;;;;;;5115449;28;20047;-69
2022/01/10 06:46:53;;;;;;;17.92;6.65;;;1.80;99.90;;;;;;5116570;28;20047;-68
2022/01/10 06:49:19;;;;;;;15.63;6.97;;;1.80;99.90;;;;;;5115843;28;20102;-68
2022/01/10 06:51:44;;;;;;;15.90;6.97;;;1.50;99.90;;;;;;5116546;28;20043;-68
2022/01/10 06:54:10;;;;;;;14.65;6.80;;;2.00;99.90;;;;;;5116424;28;20047;-68
2022/01/10 06:56:36;;;;;;;16.45;7.95;;;2.10;99.90;;;;;;5115108;28;20039;-69
2022/01/10 06:59:02;;;;;;;14.88;6.85;;;2.40;99.90;;;;;;5117107;28;20463;-69
2022/01/10 07:01:28;;;;;;;13.20;6.90;;;1.70;99.90;;;;;;5115923;28;20043;-69
2022/01/10 07:03:55;;;;;;;15.70;7.50;;;2.30;99.90;;;;;;5115638;28;20043;-69
2022/01/10 07:06:22;;;;;;;16.52;8.30;;;1.80;99.90;;;;;;5115978;28;20536;-69
2022/01/10 07:08:47;;;;;;;13.65;7.18;;;1.50;99.90;;;;;;5097546;28;20106;-69
2022/01/10 07:11:13;;;;;;;18.05;9.40;;;2.30;99.90;;;;;;5115003;28;20055;-69
2022/01/10 07:13:39;;;;;;;24.40;10.65;;;2.20;99.90;;;;;;5115662;28;20047;-70
2022/01/10 07:16:05;;;;;;;22.77;11.48;;;2.30;99.90;;;;;;5114852;28;20048;-69
2022/01/10 07:18:31;;;;;;;24.90;11.73;;;1.90;99.90;;;;;;5098067;28;20055;-69
2022/01/10 07:20:56;;;;;;;25.58;11.75;;;2.30;99.90;;;;;;5098313;28;20061;-69
2022/01/10 07:23:23;;;;;;;20.90;10.40;;;1.80;99.90;;;;;;5114908;28;20479;-69
2022/01/10 07:25:49;;;;;;;18.38;9.25;;;1.70;99.90;;;;;;5114934;28;20055;-69
2022/01/10 07:28:15;;;;;;;15.52;9.30;;;1.80;99.90;;;;;;5115134;28;20155;-69
2022/01/10 07:30:41;;;;;;;15.75;7.50;;;2.30;99.90;;;;;;5115588;28;20053;-69
2022/01/10 07:33:09;;;;;;;14.43;7.78;;;2.50;99.90;;;;;;5114430;28;20487;-70
2022/01/10 07:35:34;;;;;;;15.20;7.65;;;1.40;99.90;;;;;;5097069;28;20043;-69
2022/01/10 07:38:00;;;;;;;16.50;7.90;;;1.80;99.90;;;;;;5097720;28;20375;-69
2022/01/10 07:40:26;;;;;;;16.77;8.07;;;2.20;99.90;;;;;;5114263;28;20040;-70
2022/01/10 07:42:52;;;;;;;15.13;8.07;;;1.70;99.90;;;;;;5115405;28;20051;-70
2022/01/10 07:45:18;;;;;;;17.73;8.95;;;1.40;99.90;;;;;;5097512;28;20040;-70
2022/01/10 07:47:44;;;;;;;18.20;7.88;;;1.40;99.90;;;;;;5115365;28;20059;-70
2022/01/10 07:50:10;;;;;;;17.10;8.07;;;1.60;99.90;;;;;;5115562;28;20069;-69
2022/01/10 07:52:37;;;;;;;11.88;7.47;;;1.80;99.90;;;;;;5115640;28;20051;-69
2022/01/10 07:55:04;;;;;;;15.93;8.32;;;1.60;99.90;;;;;;5097204;28;20059;-69
2022/01/10 07:57:30;;;;;;;18.50;8.65;;;1.40;99.90;;;;;;5096983;28;20040;-69
2022/01/10 07:59:55;;;;;;;21.77;10.85;;;2.20;99.90;;;;;;5096542;28;20042;-70
2022/01/10 08:02:21;;;;;;;26.83;12.98;;;1.40;99.90;;;;;;5113564;28;20051;-71
2022/01/10 08:04:48;;;;;;;19.95;10.98;;;2.30;99.90;;;;;;5113871;28;20364;-71
2022/01/10 08:07:14;;;;;;;20.50;10.65;;;1.60;99.90;;;;;;5113219;28;20055;-71
2022/01/10 08:09:40;;;;;;;20.02;9.18;;;2.30;99.90;;;;;;5113630;28;20043;-70
2022/01/10 08:12:06;;;;;;;22.90;9.75;;;2.10;99.90;;;;;;5113502;28;20047;-70
2022/01/10 08:14:33;;;;;;;15.25;8.60;;;1.40;99.90;;;;;;5113700;28;20047;-71
2022/01/10 08:17:00;;;;;;;17.25;9.30;;;1.50;99.90;;;;;;5114461;28;20040;-70
2022/01/10 08:19:31;;;;;;;17.52;9.13;;;2.00;99.90;;;;;;5113388;28;20047;-71
2022/01/10 08:21:57;;;;;;;20.02;9.73;;;1.60;99.90;;;;;;5115269;28;20056;-70
2022/01/10 08:24:24;;;;;;;19.63;10.27;;;1.60;99.90;;;;;;5114746;28;20104;-70
2022/01/10 08:26:51;;;;;;;19.85;10.73;;;1.60;99.90;;;;;;5113420;28;20040;-70
2022/01/10 08:29:16;;;;;;;17.25;9.60;;;1.80;99.90;;;;;;5115054;28;20475;-71
2022/01/10 08:31:42;;;;;;;20.33;10.30;;;2.70;99.90;;;;;;5113424;28;20094;-71
2022/01/10 08:34:08;;;;;;;22.15;10.63;;;2.10;99.90;;;;;;5113697;28;20084;-72
2022/01/10 08:36:34;;;;;;;18.10;10.63;;;2.20;99.90;;;;;;5114321;28;20399;-73
2022/01/10 08:39:03;;;;;;;19.13;11.00;;;2.50;99.90;;;;;;5097265;28;20050;-72
2022/01/10 08:41:29;;;;;;;23.25;11.18;;;1.60;99.90;;;;;;5113088;28;20052;-71
2022/01/10 08:43:55;;;;;;;19.88;11.70;;;1.70;99.90;;;;;;5114103;28;20046;-72
2022/01/10 08:46:22;;;;;;;20.65;12.15;;;1.80;99.90;;;;;;5112020;28;20043;-71
2022/01/10 08:48:48;;;;;;;23.40;11.32;;;2.00;99.90;;;;;;5113165;28;20039;-73
2022/01/10 08:51:14;;;;;;;18.67;11.50;;;1.80;99.90;;;;;;5114027;28;20051;-72
2022/01/10 08:53:40;;;;;;;21.20;11.55;;;2.20;99.90;;;;;;5114613;28;20105;-72
2022/01/10 08:56:06;;;;;;;21.60;10.77;;;3.10;99.90;;;;;;5113162;28;20392;-72
2022/01/10 08:58:32;;;;;;;21.15;11.32;;;2.40;99.90;;;;;;5114044;28;20043;-72
2022/01/10 09:01:04;;;;;;;22.27;12.02;;;1.80;99.90;;;;;;5113990;28;20048;-71
2022/01/10 09:03:30;;;;;;;19.60;11.75;;;2.50;99.90;;;;;;5113781;28;20052;-72
2022/01/10 09:05:56;;;;;;;19.73;11.43;;;2.10;99.90;;;;;;5112879;28;20086;-71
2022/01/10 09:08:35;;;;;;;24.45;12.63;;;3.20;99.90;;;;;;5112174;28;20048;-70
2022/01/10 09:11:02;;;;;;;22.85;12.85;;;2.30;99.90;;;;;;5112987;28;20054;-71
2022/01/10 09:13:28;;;;;;;24.38;13.60;;;2.50;99.90;;;;;;5113778;28;20039;-71
2022/01/10 09:15:53;;;;;;;22.42;12.40;;;3.10;99.90;;;;;;5079039;28;20096;-69
2022/01/10 09:18:20;;;;;;;24.58;13.00;;;2.30;99.90;;;;;;5112092;28;20040;-71
2022/01/10 09:20:46;;;;;;;22.23;12.88;;;2.70;99.90;;;;;;5113788;28;20059;-71
2022/01/10 09:23:13;;;;;;;28.85;14.63;;;2.20;99.90;;;;;;5112801;28;20600;-70
2022/01/10 09:25:39;;;;;;;23.67;13.32;;;2.40;99.90;;;;;;5112738;28;20047;-70
2022/01/10 09:28:05;;;;;;;21.98;12.57;;;2.30;99.90;;;;;;5114257;28;20035;-70
2022/01/10 09:30:31;;;;;;;21.08;13.00;;;2.00;99.90;;;;;;5113000;28;20104;-70
2022/01/10 09:32:57;;;;;;;23.38;13.45;;;2.50;99.90;;;;;;5113611;28;20131;-70
2022/01/10 09:35:24;;;;;;;24.83;13.10;;;3.20;99.90;;;;;;5112151;28;20044;-70
2022/01/10 09:37:49;;;;;;;20.95;12.13;;;2.20;99.90;;;;;;5113348;28;20549;-70
2022/01/10 09:40:16;;;;;;;22.42;12.63;;;2.60;99.90;;;;;;5113462;28;20044;-71
2022/01/10 09:42:42;;;;;;;24.15;13.85;;;3.60;99.90;;;;;;5112462;28;20046;-71
2022/01/10 09:45:09;;;;;;;23.30;13.50;;;2.60;99.90;;;;;;5111679;28;20058;-71
2022/01/10 09:47:35;;;;;;;27.20;14.98;;;2.30;99.90;;;;;;5110995;28;20036;-72
2022/01/10 09:50:02;;;;;;;22.73;13.30;;;2.40;99.90;;;;;;5111745;28;20070;-72
2022/01/10 09:52:29;;;;;;;26.15;14.30;;;2.30;99.90;;;;;;5111178;28;20075;-73
2022/01/10 09:54:55;;;;;;;25.75;13.88;;;2.60;99.90;;;;;;5111203;28;20138;-72
2022/01/10 09:57:21;;;;;;;23.92;14.05;;;3.00;99.90;;;;;;5111212;28;20122;-72
2022/01/10 09:59:47;;;;;;;27.40;14.20;;;2.80;99.90;;;;;;5115216;28;20516;-72
2022/01/10 10:02:15;;;;;;;23.42;14.00;;;2.70;99.90;;;;;;5116115;27;20047;-73
2022/01/10 10:04:41;;;;;;;22.30;13.00;;;3.30;99.90;;;;;;5116771;28;20122;-72
2022/01/10 10:07:07;;;;;;;25.27;13.77;;;3.30;99.90;;;;;;5120238;27;20054;-72
2022/01/10 10:09:34;;;;;;;24.20;13.63;;;3.00;99.90;;;;;;5101856;27;20055;-72
2022/01/10 10:12:03;;;;;;;23.25;13.32;;;2.80;99.90;;;;;;5118426;27;20091;-72
2022/01/10 10:14:29;;;;;;;26.25;14.30;;;2.70;99.90;;;;;;5118722;27;20043;-73
2022/01/10 10:16:57;;;;;;;24.67;14.10;;;3.20;99.90;;;;;;5118278;27;20091;-72
2022/01/10 10:19:28;;;;;;;25.25;14.23;;;3.40;99.90;;;;;;5117988;27;20039;-72
2022/01/10 10:21:56;;;;;;;24.10;14.75;;;3.00;99.90;;;;;;5118891;27;20360;-72
2022/01/10 10:24:22;;;;;;;26.08;14.70;;;3.40;99.90;;;;;;5118319;27;20043;-73
2022/01/10 10:26:49;;;;;;;27.60;14.70;;;3.60;99.90;;;;;;5136911;27;20127;-72
2022/01/10 10:29:17;;;;;;;27.40;13.80;;;3.00;99.90;;;;;;5117849;27;20070;-72
2022/01/10 10:31:48;;;;;;;23.88;14.88;;;2.90;99.90;;;;;;5136705;27;20118;-72
2022/01/10 10:34:20;;;;;;;22.00;13.80;;;3.00;99.90;;;;;;5118090;27;20470;-72
2022/01/10 10:36:57;;;;;;;24.00;15.38;;;3.10;99.90;;;;;;5136124;27;20081;-72
2022/01/10 10:39:26;;;;;;;28.38;14.82;;;3.80;99.90;;;;;;5085462;27;20090;-72
2022/01/10 10:41:58;;;;;;;24.05;14.02;;;3.40;99.90;;;;;;5118107;27;20482;-73
2022/01/10 10:44:25;;;;;;;26.95;14.55;;;4.10;99.90;;;;;;5101418;27;20062;-73
2022/01/10 10:46:51;;;;;;;23.90;15.25;;;4.30;99.90;;;;;;5100566;27;20353;-73
2022/01/10 10:49:20;;;;;;;30.75;16.00;;;4.00;99.90;;;;;;5135792;27;20100;-72
2022/01/10 10:51:50;;;;;;;28.05;16.02;;;3.50;99.90;;;;;;5135861;27;20420;-72
2022/01/10 10:54:17;;;;;;;28.55;15.70;;;3.80;99.90;;;;;;5117455;27;20051;-72
2022/01/10 10:56:45;;;;;;;23.25;14.55;;;3.90;99.90;;;;;;5117236;27;20449;-73
2022/01/10 10:59:11;;;;;;;24.42;15.75;;;3.30;99.90;;;;;;5117605;27;20051;-72
2022/01/10 11:01:42;;;;;;;27.40;14.90;;;3.50;99.90;;;;;;5118010;27;20535;-72
2022/01/10 11:04:10;;;;;;;24.60;14.80;;;3.80;99.90;;;;;;5135565;27;20046;-72
2022/01/10 11:06:37;;;;;;;23.08;14.43;;;3.60;99.90;;;;;;5117366;27;20047;-73
2022/01/10 11:09:09;;;;;;;24.77;14.77;;;3.70;99.90;;;;;;5113249;28;20091;-73
2022/01/10 11:11:35;;;;;;;25.65;15.50;;;4.20;99.90;;;;;;5113761;28;20054;-72
2022/01/10 11:14:02;;;;;;;27.15;15.30;;;3.30;99.90;;;;;;5115871;27;20043;-73
2022/01/10 11:16:29;;;;;;;26.15;15.40;;;3.70;99.90;;;;;;5097367;28;20122;-72
2022/01/10 11:18:55;;;;;;;26.00;15.40;;;3.70;99.90;;;;;;5114378;28;20475;-73
2022/01/10 11:21:25;;;;;;;26.13;15.88;;;3.70;99.90;;;;;;5114149;28;20044;-73
2022/01/10 11:23:52;;;;;;;29.23;15.80;;;4.00;99.90;;;;;;5114639;28;20096;-72
2022/01/10 11:26:18;;;;;;;28.05;15.27;;;3.90;99.90;;;;;;5114574;28;20506;-72
2022/01/10 11:28:55;;;;;;;26.98;16.20;;;4.20;99.90;;;;;;5114426;28;20048;-73
2022/01/10 11:31:28;;;;;;;25.27;16.23;;;3.90;99.90;;;;;;5114292;28;20048;-72
2022/01/10 11:33:57;;;;;;;34.95;16.08;;;3.90;99.90;;;;;;5113351;28;20467;-73
2022/01/10 11:36:25;;;;;;;26.05;15.15;;;4.50;99.90;;;;;;5115185;28;20054;-75
2022/01/10 11:38:52;;;;;;;24.30;15.10;;;4.40;99.90;;;;;;5097021;28;20044;-73
2022/01/10 11:41:30;;;;;;;28.20;16.10;;;4.00;99.90;;;;;;5114475;28;20100;-73
2022/01/10 11:44:08;;;;;;;23.80;15.30;;;4.10;99.90;;;;;;5116102;28;20123;-70
2022/01/10 11:46:42;;;;;;;22.90;14.70;;;4.10;99.90;;;;;;5118716;28;20483;-71
2022/01/10 11:49:08;;;;;;;24.75;14.80;;;4.10;99.90;;;;;;5114666;28;20040;-69
2022/01/10 11:51:37;;;;;;;21.33;14.85;;;4.20;99.90;;;;;;5114544;28;20051;-69
2022/01/10 11:54:08;;;;;;;26.92;15.57;;;4.30;99.90;;;;;;5118303;28;20051;-74
2022/01/10 11:56:37;;;;;;;24.05;13.57;;;4.20;99.90;;;;;;5097422;28;20043;-78
2022/01/10 11:59:25;;;;;;;26.40;14.15;;;4.30;99.90;;;;;;5114183;28;20051;-78
2022/01/10 12:02:10;;;;;;;27.70;15.30;;;5.10;99.90;;;;;;5113918;28;20141;-78
2022/01/10 12:04:39;;;;;;;26.25;15.63;;;4.40;99.90;;;;;;5114857;28;20062;-77
2022/01/10 12:07:13;;;;;;;25.95;15.02;;;4.50;99.90;;;;;;5113654;28;20109;-77
2022/01/10 12:09:39;;;;;;;29.10;16.00;;;4.40;99.90;;;;;;5097822;28;20060;-78
2022/01/10 12:12:08;;;;;;;27.25;15.40;;;4.50;99.90;;;;;;5114938;28;20043;-78
2022/01/10 12:14:34;;;;;;;27.45;16.17;;;4.50;99.90;;;;;;5114552;28;20047;-78
2022/01/10 12:17:01;;;;;;;23.67;15.32;;;4.50;99.90;;;;;;5113429;28;20553;-78
2022/01/10 12:19:27;;;;;;;24.10;13.77;;;4.60;99.90;;;;;;5080170;28;20138;-78
2022/01/10 12:21:54;;;;;;;20.95;13.45;;;4.70;99.90;;;;;;5114644;28;20039;-78
2022/01/10 12:24:20;;;;;;;23.88;13.48;;;4.60;99.90;;;;;;5113350;28;20047;-78
2022/01/10 12:26:46;;;;;;;26.95;13.73;;;4.80;99.90;;;;;;5097006;28;20485;-78
2022/01/10 12:29:13;;;;;;;19.75;11.90;;;4.90;99.90;;;;;;5114774;28;20040;-75
2022/01/10 12:31:43;;;;;;;21.88;13.23;;;4.80;99.90;;;;;;5113500;28;20051;-75
2022/01/10 12:34:10;;;;;;;23.92;14.75;;;4.70;99.90;;;;;;5113378;28;20044;-73
2022/01/10 12:36:38;;;;;;;22.58;13.15;;;4.80;99.90;;;;;;5113425;28;20043;-73
2022/01/10 12:39:27;;;;;;;17.98;12.35;;;5.00;99.90;;;;;;5113766;28;20047;-73
2022/01/10 12:41:56;;;;;;;25.00;14.55;;;4.90;99.90;;;;;;5096422;28;20051;-73
2022/01/10 12:44:23;;;;;;;22.63;14.07;;;4.70;99.90;;;;;;5114245;28;20078;-73
2022/01/10 12:46:49;;;;;;;22.17;13.05;;;5.30;99.90;;;;;;5096256;28;20051;-73
2022/01/10 12:49:16;;;;;;;20.98;13.27;;;5.00;99.90;;;;;;5097125;28;20051;-74
2022/01/10 12:51:53;;;;;;;22.17;13.45;;;5.60;99.90;;;;;;5096413;28;20130;-74
2022/01/10 12:54:22;;;;;;;24.08;14.05;;;5.40;99.90;;;;;;5114189;28;20051;-74
2022/01/10 12:56:49;;;;;;;24.02;13.60;;;5.20;99.90;;;;;;5113920;28;20051;-75
2022/01/10 12:59:18;;;;;;;22.13;13.80;;;5.20;99.90;;;;;;5113053;28;20048;-75